createdAt,value
2019-01-26T00:01:22.192Z,-2.90
2019-01-26T00:03:49.695Z,-2.80
2019-01-26T00:06:16.486Z,-2.80
2019-01-26T00:08:43.213Z,-2.80
2019-01-26T00:11:10.743Z,-2.90
2019-01-26T00:13:37.510Z,-2.90
2019-01-26T00:16:04.212Z,-2.90
2019-01-26T00:18:31.047Z,-2.80
2019-01-26T00:20:57.753Z,-2.90
2019-01-26T00:23:25.200Z,-2.80
2019-01-26T00:25:52.044Z,-2.80
2019-01-26T00:28:18.811Z,-2.80
2019-01-26T00:30:46.251Z,-2.80
2019-01-26T00:33:13.952Z,-2.80
2019-01-26T00:35:40.982Z,-2.80
2019-01-26T00:38:08.545Z,-2.90
2019-01-26T00:40:35.352Z,-2.90
2019-01-26T00:43:02.088Z,-3.00
2019-01-26T00:45:29.550Z,-3.00
2019-01-26T00:47:57.367Z,-3.00
2019-01-26T00:50:24.112Z,-3.00
2019-01-26T00:52:51.684Z,-3.00
2019-01-26T00:55:18.507Z,-3.00
2019-01-26T00:57:45.239Z,-3.00
2019-01-26T01:00:13.890Z,-3.00
2019-01-26T01:02:40.727Z,-3.00
2019-01-26T01:05:07.472Z,-3.10
2019-01-26T01:07:34.903Z,-3.10
2019-01-26T01:10:01.785Z,-3.20
2019-01-26T01:12:28.619Z,-3.20
2019-01-26T01:14:56.058Z,-3.40
2019-01-26T01:17:22.836Z,-3.50
2019-01-26T01:19:50.315Z,-3.50
2019-01-26T01:22:17.041Z,-3.50
2019-01-26T01:24:44.596Z,-3.60
2019-01-26T01:27:11.313Z,-3.60
2019-01-26T01:29:39.707Z,-3.70
2019-01-26T01:32:07.614Z,-3.70
2019-01-26T01:34:34.331Z,-3.70
2019-01-26T01:37:01.117Z,-3.70
2019-01-26T01:39:28.622Z,-3.70
2019-01-26T01:41:55.403Z,-3.70
2019-01-26T01:44:22.235Z,-3.70
2019-01-26T01:46:48.973Z,-3.60
2019-01-26T01:49:15.675Z,-3.60
2019-01-26T01:51:43.162Z,-3.70
2019-01-26T01:54:09.896Z,-3.70
2019-01-26T01:56:36.682Z,-3.70
2019-01-26T01:59:03.451Z,-3.70
2019-01-26T02:01:30.154Z,-3.80
2019-01-26T02:03:57.707Z,-3.80
2019-01-26T02:06:26.007Z,-3.90
2019-01-26T02:08:52.732Z,-3.90
2019-01-26T02:11:19.544Z,-3.90
2019-01-26T02:13:46.270Z,-4.10
2019-01-26T02:16:13.765Z,-4.30
2019-01-26T02:18:40.487Z,-4.30
2019-01-26T02:21:07.251Z,-4.40
2019-01-26T02:23:33.963Z,-4.50
2019-01-26T02:26:00.805Z,-4.70
2019-01-26T02:28:27.606Z,-4.80
2019-01-26T02:30:54.337Z,-4.90
2019-01-26T02:33:21.155Z,-4.90
2019-01-26T02:35:47.929Z,-5.00
2019-01-26T02:38:14.665Z,-5.00
2019-01-26T02:40:41.386Z,-5.00
2019-01-26T02:43:08.163Z,-5.00
2019-01-26T02:45:36.536Z,-5.20
2019-01-26T02:48:03.255Z,-5.20
2019-01-26T02:50:30.011Z,-5.20
2019-01-26T02:52:56.733Z,-5.20
2019-01-26T02:55:23.428Z,-5.30
2019-01-26T02:57:50.262Z,-5.30
2019-01-26T03:00:17.063Z,-5.40
2019-01-26T03:02:43.827Z,-5.30
2019-01-26T03:05:10.626Z,-5.30
2019-01-26T03:07:37.399Z,-5.30
2019-01-26T03:10:04.245Z,-5.40
2019-01-26T03:12:31.099Z,-5.50
2019-01-26T03:14:58.563Z,-5.60
2019-01-26T03:17:25.272Z,-5.60
2019-01-26T03:19:52.037Z,-5.60
2019-01-26T03:22:19.475Z,-5.70
2019-01-26T03:24:46.183Z,-5.80
2019-01-26T03:27:13.006Z,-5.70
2019-01-26T03:29:39.710Z,-5.80
2019-01-26T03:32:07.202Z,-5.90
2019-01-26T03:34:34.011Z,-5.90
2019-01-26T03:37:01.512Z,-6.00
2019-01-26T03:39:28.232Z,-6.00
2019-01-26T03:41:55.824Z,-6.00
2019-01-26T03:44:22.583Z,-6.10
2019-01-26T03:46:49.378Z,-6.10
2019-01-26T03:49:16.159Z,-6.10
2019-01-26T03:51:42.901Z,-6.10
2019-01-26T03:54:09.780Z,-6.20
2019-01-26T03:56:37.280Z,-6.30
2019-01-26T03:59:05.061Z,-6.30
2019-01-26T04:01:32.101Z,-6.30
2019-01-26T04:03:58.908Z,-6.40
2019-01-26T04:06:25.658Z,-6.40
2019-01-26T04:08:52.520Z,-6.60
2019-01-26T04:11:19.308Z,-6.70
2019-01-26T04:13:46.563Z,-6.70
2019-01-26T04:16:13.469Z,-6.70
2019-01-26T04:18:40.196Z,-6.70
2019-01-26T04:21:06.975Z,-6.70
2019-01-26T04:23:33.850Z,-6.70
2019-01-26T04:26:00.679Z,-6.70
2019-01-26T04:28:28.436Z,-6.70
2019-01-26T04:30:55.256Z,-6.70
2019-01-26T04:33:22.059Z,-6.70
2019-01-26T04:35:48.875Z,-6.60
2019-01-26T04:38:15.665Z,-6.60
2019-01-26T04:40:42.625Z,-6.50
2019-01-26T04:43:09.361Z,-6.50
2019-01-26T04:45:36.293Z,-6.60
2019-01-26T04:48:03.129Z,-6.50
2019-01-26T04:50:29.873Z,-6.50
2019-01-26T04:52:56.717Z,-6.40
2019-01-26T04:55:23.605Z,-6.30
2019-01-26T04:57:50.397Z,-6.20
2019-01-26T05:00:20.444Z,-6.20
2019-01-26T05:02:48.391Z,-6.10
2019-01-26T05:05:15.437Z,-6.10
2019-01-26T05:07:42.243Z,-6.00
2019-01-26T05:10:10.620Z,-5.90
2019-01-26T05:12:37.381Z,-5.90
2019-01-26T05:15:04.249Z,-5.90
2019-01-26T05:17:39.298Z,-5.90
2019-01-26T05:19:59.460Z,-5.90
2019-01-26T05:22:26.412Z,-5.90
2019-01-26T05:24:53.182Z,-5.80
2019-01-26T05:27:20.124Z,-5.90
2019-01-26T05:29:46.996Z,-5.90
2019-01-26T05:32:14.601Z,-5.90
2019-01-26T05:34:41.547Z,-5.90
2019-01-26T05:37:08.386Z,-5.90
2019-01-26T05:39:35.137Z,-5.90
2019-01-26T05:42:01.923Z,-5.90
2019-01-26T05:44:29.521Z,-5.90
2019-01-26T05:46:56.260Z,-5.90
2019-01-26T05:49:23.029Z,-5.90
2019-01-26T05:51:49.815Z,-6.00
2019-01-26T05:54:16.501Z,-6.00
2019-01-26T05:56:43.185Z,-6.00
2019-01-26T05:59:10.689Z,-6.10
2019-01-26T06:01:37.461Z,-6.10
2019-01-26T06:04:04.928Z,-6.10
2019-01-26T06:06:31.621Z,-6.10
2019-01-26T06:08:58.367Z,-6.10
2019-01-26T06:11:25.134Z,-6.10
2019-01-26T06:13:51.842Z,-6.20
2019-01-26T06:16:18.794Z,-6.20
2019-01-26T06:18:45.560Z,-6.30
2019-01-26T06:21:12.315Z,-6.30
2019-01-26T06:23:39.118Z,-6.30
2019-01-26T06:26:05.862Z,-6.30
2019-01-26T06:28:32.539Z,-6.30
2019-01-26T06:30:59.339Z,-6.20
2019-01-26T06:33:26.186Z,-6.20
2019-01-26T06:35:53.026Z,-6.20
2019-01-26T06:38:19.967Z,-6.20
2019-01-26T06:40:46.708Z,-6.20
2019-01-26T06:43:13.438Z,-6.30
2019-01-26T06:45:40.188Z,-6.30
2019-01-26T06:48:06.925Z,-6.40
2019-01-26T06:50:33.775Z,-6.40
2019-01-26T06:53:00.616Z,-6.50
2019-01-26T06:55:27.330Z,-6.50
2019-01-26T06:57:54.865Z,-6.50
2019-01-26T07:00:21.864Z,-6.60
2019-01-26T07:02:48.805Z,-6.60
2019-01-26T07:05:30.587Z,-6.60
2019-01-26T07:07:57.341Z,-6.60
2019-01-26T07:10:24.081Z,-6.50
2019-01-26T07:12:50.931Z,-6.50
2019-01-26T07:15:17.766Z,-6.50
2019-01-26T07:17:44.610Z,-6.50
2019-01-26T07:20:13.456Z,-6.50
2019-01-26T07:22:40.892Z,-6.40
2019-01-26T07:25:08.513Z,-6.40
2019-01-26T07:27:35.566Z,-6.40
2019-01-26T07:30:02.410Z,-6.50
2019-01-26T07:32:29.358Z,-6.50
2019-01-26T07:34:56.191Z,-6.50
2019-01-26T07:37:22.938Z,-6.40
2019-01-26T07:39:49.698Z,-6.40
2019-01-26T07:42:16.456Z,-6.40
2019-01-26T07:44:43.184Z,-6.40
2019-01-26T07:47:09.998Z,-6.30
2019-01-26T07:49:36.842Z,-6.40
2019-01-26T07:52:03.791Z,-6.30
2019-01-26T07:54:30.631Z,-6.20
2019-01-26T07:56:57.989Z,-6.10
2019-01-26T07:59:24.828Z,-6.20
2019-01-26T08:01:51.628Z,-6.10
2019-01-26T08:04:18.503Z,-6.10
2019-01-26T08:06:45.245Z,-6.10
2019-01-26T08:09:12.214Z,-6.10
2019-01-26T08:11:38.890Z,-6.50
2019-01-26T08:14:06.385Z,-6.20
2019-01-26T08:16:33.147Z,-6.20
2019-01-26T08:18:59.900Z,-6.10
2019-01-26T08:21:26.683Z,-6.00
2019-01-26T08:23:54.154Z,-5.80
2019-01-26T08:26:21.020Z,-5.80
2019-01-26T08:28:47.906Z,-5.70
2019-01-26T08:31:15.494Z,-5.50
2019-01-26T08:33:42.209Z,-5.50
2019-01-26T08:36:08.973Z,-5.40
2019-01-26T08:38:35.695Z,-5.50
2019-01-26T08:41:03.583Z,-5.30
2019-01-26T08:43:30.380Z,-5.20
2019-01-26T08:45:57.848Z,-5.10
2019-01-26T08:48:31.025Z,-5.00
2019-01-26T08:50:52.269Z,-5.00
2019-01-26T08:53:19.039Z,-5.10
2019-01-26T08:55:46.312Z,-5.00
2019-01-26T08:58:13.269Z,-4.90
2019-01-26T09:00:40.165Z,-4.90
2019-01-26T09:03:07.930Z,-4.80
2019-01-26T09:08:29.196Z,-4.70
2019-01-26T09:10:56.862Z,-4.60
2019-01-26T09:13:23.652Z,-4.70
2019-01-26T09:15:50.574Z,-4.60
2019-01-26T09:18:18.252Z,-4.50
2019-01-26T09:20:45.069Z,-4.50
2019-01-26T09:23:11.915Z,-4.40
2019-01-26T09:25:38.838Z,-4.40
2019-01-26T09:28:06.203Z,-4.40
2019-01-26T09:30:34.015Z,-4.20
2019-01-26T09:33:00.837Z,-4.20
2019-01-26T09:35:28.474Z,-4.00
2019-01-26T09:37:57.112Z,-4.00
2019-01-26T09:40:24.112Z,-4.00
2019-01-26T09:42:52.339Z,-3.80
2019-01-26T09:45:19.389Z,-3.80
2019-01-26T09:47:46.225Z,-3.80
2019-01-26T09:50:13.002Z,-4.00
2019-01-26T09:52:40.576Z,-3.90
2019-01-26T09:55:11.359Z,-4.00
2019-01-26T09:57:38.130Z,-4.00
2019-01-26T10:00:11.704Z,-4.00
2019-01-26T10:02:38.522Z,-3.80
2019-01-26T10:05:06.754Z,-3.80
2019-01-26T10:07:34.658Z,-3.70
2019-01-26T10:10:02.610Z,-3.70
2019-01-26T10:12:30.050Z,-3.50
2019-01-26T10:14:56.930Z,-3.60
2019-01-26T10:17:23.807Z,-3.50
2019-01-26T10:19:51.216Z,-3.30
2019-01-26T10:22:18.096Z,-3.00
2019-01-26T10:24:45.133Z,-2.70
2019-01-26T10:27:12.446Z,-2.60
2019-01-26T10:29:39.439Z,-2.80
2019-01-26T10:32:06.277Z,-2.70
2019-01-26T10:34:33.150Z,-2.50
2019-01-26T10:37:00.290Z,-2.60
2019-01-26T10:39:27.087Z,-2.80
2019-01-26T10:41:53.866Z,-2.60
2019-01-26T10:44:20.953Z,-2.80
2019-01-26T10:46:47.808Z,-2.90
2019-01-26T10:49:14.798Z,-2.60
2019-01-26T10:51:41.734Z,-2.60
2019-01-26T10:54:08.631Z,-2.50
2019-01-26T10:56:35.549Z,-2.40
2019-01-26T10:59:02.370Z,-2.40
2019-01-26T11:01:29.119Z,-2.80
2019-01-26T11:03:56.413Z,-2.60
2019-01-26T11:06:23.261Z,-2.60
2019-01-26T11:08:50.774Z,-2.60
2019-01-26T11:11:17.538Z,-2.50
2019-01-26T11:13:45.598Z,-2.40
2019-01-26T11:16:12.956Z,-2.40
2019-01-26T11:18:40.118Z,-2.20
2019-01-26T11:21:07.481Z,-2.20
2019-01-26T11:23:34.261Z,-2.40
2019-01-26T11:26:01.271Z,-2.50
2019-01-26T11:28:29.510Z,-2.60
2019-01-26T11:30:56.388Z,-2.60
2019-01-26T11:33:23.971Z,-2.40
2019-01-26T11:35:51.032Z,-2.40
2019-01-26T11:38:17.832Z,-2.40
2019-01-26T11:40:44.673Z,-2.20
2019-01-26T11:43:11.506Z,-2.10
2019-01-26T11:45:52.164Z,-2.00
2019-01-26T11:48:23.912Z,-2.20
2019-01-26T11:50:57.627Z,-2.30
2019-01-26T11:53:25.163Z,-2.20
2019-01-26T11:55:53.160Z,-2.20
2019-01-26T11:58:20.020Z,-2.20
2019-01-26T12:00:50.831Z,-2.00
2019-01-26T12:03:21.877Z,-1.80
2019-01-26T12:05:50.377Z,-1.40
2019-01-26T12:08:17.068Z,-1.50
2019-01-26T12:10:44.503Z,-1.40
2019-01-26T12:13:11.359Z,-1.50
2019-01-26T12:15:39.214Z,-1.30
2019-01-26T12:18:06.021Z,-1.30
2019-01-26T12:20:33.187Z,-1.50
2019-01-26T12:23:00.040Z,-1.40
2019-01-26T12:25:26.902Z,-1.30
2019-01-26T12:27:53.797Z,-1.30
2019-01-26T12:30:20.504Z,-1.20
2019-01-26T12:32:47.194Z,-1.30
2019-01-26T12:35:13.959Z,-1.30
2019-01-26T12:37:41.441Z,-1.30
2019-01-26T12:40:09.166Z,-1.30
2019-01-26T12:42:36.082Z,-1.30
2019-01-26T12:45:03.957Z,-1.30
2019-01-26T12:47:30.193Z,-1.30
2019-01-26T12:49:57.035Z,-1.40
2019-01-26T12:52:23.866Z,-1.30
2019-01-26T12:54:50.772Z,-1.40
2019-01-26T12:57:17.643Z,-1.60
2019-01-26T12:59:44.427Z,-1.50
2019-01-26T13:02:12.971Z,-1.50
2019-01-26T13:04:40.425Z,-1.50
2019-01-26T13:07:07.402Z,-1.80
2019-01-26T13:09:34.168Z,-1.70
2019-01-26T13:12:01.006Z,-1.70
2019-01-26T13:14:27.740Z,-1.70
2019-01-26T13:16:55.278Z,-1.70
2019-01-26T13:19:22.127Z,-1.70
2019-01-26T13:21:48.877Z,-1.90
2019-01-26T13:24:15.634Z,-1.80
2019-01-26T13:26:42.340Z,-1.80
2019-01-26T13:29:09.200Z,-2.30
2019-01-26T13:31:35.981Z,-2.20
2019-01-26T13:34:03.512Z,-2.00
2019-01-26T13:36:30.296Z,-2.00
2019-01-26T13:38:57.164Z,-1.90
2019-01-26T13:41:24.074Z,-2.00
2019-01-26T13:43:50.806Z,-2.00
2019-01-26T13:46:18.505Z,-2.30
2019-01-26T13:48:45.368Z,-2.30
2019-01-26T13:51:13.125Z,-2.20
2019-01-26T13:53:39.796Z,-2.20
2019-01-26T13:58:44.530Z,-2.10
2019-01-26T14:01:11.308Z,-2.20
2019-01-26T14:03:38.843Z,-2.20
2019-01-26T14:06:06.404Z,-2.20
2019-01-26T14:08:33.987Z,-2.30
2019-01-26T14:11:01.483Z,-2.30
2019-01-26T14:13:28.385Z,-2.30
2019-01-26T14:15:55.092Z,-2.30
2019-01-26T14:18:21.800Z,-2.30
2019-01-26T14:20:48.549Z,-2.40
2019-01-26T14:23:15.281Z,-2.40
2019-01-26T14:25:42.066Z,-2.50
2019-01-26T14:28:08.906Z,-2.50
2019-01-26T14:30:35.824Z,-2.50
2019-01-26T14:33:02.708Z,-2.50
2019-01-26T14:35:29.572Z,-2.60
2019-01-26T14:37:56.815Z,-2.70
2019-01-26T14:40:24.288Z,-2.60
2019-01-26T14:42:54.308Z,-2.80
2019-01-26T14:45:19.648Z,-2.80
2019-01-26T14:47:46.410Z,-2.80
2019-01-26T14:50:13.616Z,-2.80
2019-01-26T14:52:40.404Z,-2.80
2019-01-26T14:55:09.119Z,-2.90
2019-01-26T14:57:35.904Z,-2.90
2019-01-26T15:00:02.790Z,-2.90
2019-01-26T15:02:29.505Z,-2.80
2019-01-26T15:04:56.243Z,-2.90
2019-01-26T15:07:23.060Z,-2.90
2019-01-26T15:09:49.760Z,-2.90
2019-01-26T15:12:17.317Z,-2.80
2019-01-26T15:14:44.101Z,-2.90
2019-01-26T15:17:10.809Z,-2.80
2019-01-26T15:19:37.985Z,-2.90
2019-01-26T15:22:05.508Z,-3.00
2019-01-26T15:24:32.295Z,-3.00
2019-01-26T15:27:00.378Z,-3.10
2019-01-26T15:29:27.143Z,-3.20
2019-01-26T15:31:54.638Z,-3.30
2019-01-26T15:34:22.068Z,-3.30
2019-01-26T15:36:48.820Z,-3.30
2019-01-26T15:39:15.618Z,-3.30
2019-01-26T15:41:42.458Z,-3.40
2019-01-26T15:44:09.303Z,-3.40
2019-01-26T15:46:36.147Z,-3.40
2019-01-26T15:49:03.091Z,-3.50
2019-01-26T15:51:30.036Z,-3.60
2019-01-26T15:53:56.879Z,-3.70
2019-01-26T15:56:23.717Z,-3.80
2019-01-26T15:58:50.461Z,-3.90
2019-01-26T16:01:17.407Z,-4.00
2019-01-26T16:03:44.248Z,-4.20
2019-01-26T16:06:11.078Z,-4.30
2019-01-26T16:08:37.832Z,-4.40
2019-01-26T16:11:05.706Z,-4.50
2019-01-26T16:13:32.646Z,-4.50
2019-01-26T16:16:00.309Z,-4.60
2019-01-26T16:18:27.353Z,-4.60
2019-01-26T16:20:54.245Z,-4.80
2019-01-26T16:23:21.591Z,-4.80
2019-01-26T16:25:49.312Z,-4.70
2019-01-26T16:28:16.060Z,-4.70
2019-01-26T16:30:42.798Z,-4.70
2019-01-26T16:33:09.597Z,-4.70
2019-01-26T16:35:37.026Z,-4.40
2019-01-26T16:38:05.453Z,-4.30
2019-01-26T16:40:32.376Z,-4.30
2019-01-26T16:42:59.891Z,-4.20
2019-01-26T16:45:27.349Z,-4.20
2019-01-26T16:47:55.041Z,-4.10
2019-01-26T16:50:27.535Z,-4.20
2019-01-26T16:52:49.972Z,-4.00
2019-01-26T16:55:18.400Z,-3.90
2019-01-26T16:57:45.286Z,-3.90
2019-01-26T17:00:31.110Z,-3.80
2019-01-26T17:02:58.827Z,-3.80
2019-01-26T17:05:26.100Z,-3.80
2019-01-26T17:07:52.830Z,-3.70
2019-01-26T17:10:19.874Z,-3.70
2019-01-26T17:12:47.371Z,-3.70
2019-01-26T17:15:15.381Z,-3.70
2019-01-26T17:17:42.335Z,-3.70
2019-01-26T17:20:11.025Z,-3.60
2019-01-26T17:22:38.157Z,-3.60
2019-01-26T17:25:05.841Z,-3.70
2019-01-26T17:27:33.014Z,-3.70
2019-01-26T17:29:59.819Z,-3.70
2019-01-26T17:32:26.664Z,-3.70
2019-01-26T17:34:53.688Z,-3.70
2019-01-26T17:37:20.392Z,-3.70
2019-01-26T17:39:48.570Z,-3.70
2019-01-26T17:42:15.333Z,-3.80
2019-01-26T17:44:42.728Z,-3.80
2019-01-26T17:47:10.383Z,-3.70
2019-01-26T17:49:37.965Z,-3.70
2019-01-26T17:52:05.473Z,-3.70
2019-01-26T17:54:32.198Z,-3.80
2019-01-26T17:56:58.926Z,-3.70
2019-01-26T17:59:26.378Z,-3.60
2019-01-26T18:01:53.175Z,-3.70
2019-01-26T18:04:20.358Z,-3.60
2019-01-26T18:06:47.870Z,-3.60
2019-01-26T18:09:15.116Z,-3.60
2019-01-26T18:11:41.823Z,-3.60
2019-01-26T18:14:08.782Z,-3.50
2019-01-26T18:16:35.524Z,-3.60
2019-01-26T18:19:02.269Z,-3.50
2019-01-26T18:21:29.170Z,-3.50
2019-01-26T18:23:56.595Z,-3.50
2019-01-26T18:26:23.367Z,-3.50
2019-01-26T18:28:50.111Z,-3.50
2019-01-26T18:31:17.326Z,-3.50
2019-01-26T18:33:44.253Z,-3.50
2019-01-26T18:36:11.021Z,-3.50
2019-01-26T18:38:37.703Z,-3.50
2019-01-26T18:41:04.470Z,-3.60
2019-01-26T18:43:31.904Z,-3.60
2019-01-26T18:45:58.994Z,-3.60
2019-01-26T18:48:25.776Z,-3.60
2019-01-26T18:50:56.275Z,-3.60
2019-01-26T18:53:20.403Z,-3.60
2019-01-26T18:55:47.946Z,-3.50
2019-01-26T18:58:15.561Z,-3.60
2019-01-26T19:00:42.442Z,-3.60
2019-01-26T19:03:14.214Z,-3.60
2019-01-26T19:05:41.462Z,-3.60
2019-01-26T19:08:08.292Z,-3.60
2019-01-26T19:10:35.775Z,-3.50
2019-01-26T19:13:03.474Z,-3.40
2019-01-26T19:15:30.910Z,-3.40
2019-01-26T19:17:57.670Z,-3.50
2019-01-26T19:20:25.578Z,-3.50
2019-01-26T19:22:53.586Z,-3.50
2019-01-26T19:25:20.539Z,-3.50
2019-01-26T19:27:47.599Z,-3.50
2019-01-26T19:30:17.054Z,-3.40
2019-01-26T19:32:44.664Z,-3.50
2019-01-26T19:35:11.633Z,-3.40
2019-01-26T19:37:39.577Z,-3.40
2019-01-26T19:40:11.673Z,-3.40
2019-01-26T19:42:41.727Z,-3.40
2019-01-26T19:45:10.163Z,-3.40
2019-01-26T19:47:40.606Z,-3.40
2019-01-26T19:50:09.548Z,-3.40
2019-01-26T19:52:40.329Z,-3.40
2019-01-26T19:55:09.211Z,-3.40
2019-01-26T19:57:41.149Z,-3.30
2019-01-26T20:00:09.523Z,-3.30
2019-01-26T20:02:36.611Z,-3.30
2019-01-26T20:05:05.866Z,-3.40
2019-01-26T20:07:32.934Z,-3.40
2019-01-26T20:10:01.147Z,-3.40
2019-01-26T20:12:28.524Z,-3.40
2019-01-26T20:14:55.440Z,-3.40
2019-01-26T20:17:23.935Z,-3.30
2019-01-26T20:19:51.257Z,-3.30
2019-01-26T20:22:18.484Z,-3.30
2019-01-26T20:24:45.511Z,-3.30
2019-01-26T20:27:13.196Z,-3.40
2019-01-26T20:29:41.524Z,-3.40
2019-01-26T20:32:08.702Z,-3.40
2019-01-26T20:34:35.860Z,-3.40
2019-01-26T20:37:04.300Z,-3.40
2019-01-26T20:39:31.433Z,-3.40
2019-01-26T20:41:59.419Z,-3.40
2019-01-26T20:44:26.653Z,-3.40
2019-01-26T20:46:53.850Z,-3.40
2019-01-26T20:49:22.254Z,-3.30
2019-01-26T20:51:49.327Z,-3.30
2019-01-26T20:54:16.901Z,-3.40
2019-01-26T20:56:43.966Z,-3.40
2019-01-26T20:59:10.878Z,-3.40
2019-01-26T21:01:38.987Z,-3.50
2019-01-26T21:04:06.159Z,-3.50
2019-01-26T21:06:33.160Z,-3.50
2019-01-26T21:09:01.984Z,-3.50
2019-01-26T21:11:29.245Z,-3.60
2019-01-26T21:13:57.252Z,-3.50
2019-01-26T21:16:24.523Z,-3.60
2019-01-26T21:18:51.751Z,-3.60
2019-01-26T21:21:19.439Z,-3.60
2019-01-26T21:23:46.560Z,-3.60
2019-01-26T21:26:13.570Z,-3.70
2019-01-26T21:28:40.525Z,-3.70
2019-01-26T21:31:07.753Z,-3.70
2019-01-26T21:33:36.698Z,-3.70
2019-01-26T21:36:04.386Z,-3.70
2019-01-26T21:38:31.380Z,-3.70
2019-01-26T21:40:58.280Z,-3.70
2019-01-26T21:43:26.611Z,-3.80
2019-01-26T21:45:53.747Z,-3.80
2019-01-26T21:48:21.445Z,-3.80
2019-01-26T21:50:48.839Z,-3.90
2019-01-26T21:53:16.963Z,-4.00
2019-01-26T21:55:44.677Z,-4.10
2019-01-26T21:58:12.651Z,-4.00
2019-01-26T22:00:39.853Z,-4.00
2019-01-26T22:03:06.763Z,-4.30
2019-01-26T22:05:34.332Z,-4.30
2019-01-26T22:08:01.966Z,-4.30
2019-01-26T22:10:29.598Z,-4.20
2019-01-26T22:12:57.001Z,-4.20
2019-01-26T22:15:24.225Z,-4.20
2019-01-26T22:17:51.467Z,-4.40
2019-01-26T22:20:22.170Z,-4.40
2019-01-26T22:22:49.032Z,-4.50
2019-01-26T22:25:16.794Z,-4.40
2019-01-26T22:27:44.273Z,-4.50
2019-01-26T22:30:17.932Z,-4.40
2019-01-26T22:32:46.422Z,-4.40
2019-01-26T22:35:13.591Z,-4.40
2019-01-26T22:37:40.659Z,-4.40
2019-01-26T22:40:12.629Z,-4.50
2019-01-26T22:42:40.096Z,-4.50
2019-01-26T22:45:06.886Z,-4.50
2019-01-26T22:47:34.264Z,-4.40
2019-01-26T22:50:01.138Z,-4.40
2019-01-26T22:52:28.035Z,-4.40
2019-01-26T22:54:54.870Z,-4.50
2019-01-26T22:57:22.004Z,-4.50
2019-01-26T22:59:49.011Z,-4.50
2019-01-26T23:02:16.226Z,-4.70
2019-01-26T23:04:44.347Z,-4.60
2019-01-26T23:07:15.136Z,-4.50
2019-01-26T23:09:44.105Z,-4.60
2019-01-26T23:12:13.385Z,-4.50
2019-01-26T23:14:44.255Z,-4.50
2019-01-26T23:17:17.046Z,-4.50
2019-01-26T23:19:45.142Z,-4.50
2019-01-26T23:25:16.917Z,-4.50
2019-01-26T23:27:59.678Z,-4.60
2019-01-26T23:33:26.604Z,-4.60
2019-01-26T23:35:54.625Z,-4.60
2019-01-26T23:38:21.898Z,-4.60
2019-01-26T23:40:49.075Z,-4.50
2019-01-26T23:43:16.831Z,-4.60
2019-01-26T23:45:43.791Z,-4.60
2019-01-26T23:48:11.231Z,-4.60
2019-01-26T23:50:38.050Z,-4.70
2019-01-26T23:53:04.815Z,-4.70
2019-01-26T23:55:31.533Z,-4.90
2019-01-26T23:57:58.418Z,-4.90
